createdAt,value
2018-01-15T00:01:19.043Z,11.07
2018-01-15T00:03:47.177Z,10.70
2018-01-15T00:06:16.068Z,11.57
2018-01-15T00:08:44.975Z,10.90
2018-01-15T00:11:13.112Z,11.00
2018-01-15T00:13:41.258Z,11.40
2018-01-15T00:16:09.392Z,10.60
2018-01-15T00:18:37.518Z,9.50
2018-01-15T00:21:05.622Z,9.97
2018-01-15T00:23:34.519Z,11.00
2018-01-15T00:26:03.404Z,10.40
2018-01-15T00:28:32.313Z,9.97
2018-01-15T00:31:01.195Z,10.53
2018-01-15T00:33:30.107Z,10.47
2018-01-15T00:35:58.238Z,11.30
2018-01-15T00:38:26.358Z,10.53
2018-01-15T00:40:54.475Z,12.50
2018-01-15T00:43:22.610Z,10.40
2018-01-15T00:45:50.729Z,10.20
2018-01-15T00:48:18.863Z,11.57
2018-01-15T00:50:46.985Z,11.83
2018-01-15T00:53:15.892Z,11.60
2018-01-15T00:55:43.998Z,11.50
2018-01-15T00:58:12.146Z,12.20
2018-01-15T01:00:41.039Z,11.67
2018-01-15T01:03:09.186Z,11.60
2018-01-15T01:05:37.308Z,10.83
2018-01-15T01:08:05.622Z,10.87
2018-01-15T01:10:33.755Z,10.60
2018-01-15T01:13:01.896Z,12.40
2018-01-15T01:15:30.785Z,10.90
2018-01-15T01:17:59.690Z,11.30
2018-01-15T01:20:27.790Z,11.67
2018-01-15T01:22:55.937Z,10.60
2018-01-15T01:25:24.068Z,11.30
2018-01-15T01:27:52.191Z,11.00
2018-01-15T01:30:20.302Z,10.80
2018-01-15T01:32:48.442Z,11.27
2018-01-15T01:35:16.551Z,11.33
2018-01-15T01:37:44.681Z,10.43
2018-01-15T01:40:12.798Z,11.70
2018-01-15T01:42:40.938Z,11.23
2018-01-15T01:45:09.058Z,11.30
2018-01-15T01:47:37.168Z,10.27
2018-01-15T01:50:05.315Z,11.37
2018-01-15T01:52:34.231Z,11.27
2018-01-15T01:55:02.775Z,11.80
2018-01-15T01:57:30.874Z,11.10
2018-01-15T01:59:59.032Z,11.50
2018-01-15T02:02:27.144Z,11.80
2018-01-15T02:04:55.293Z,13.43
2018-01-15T02:07:23.426Z,12.80
2018-01-15T02:09:51.572Z,10.70
2018-01-15T02:12:20.492Z,11.10
2018-01-15T02:14:48.631Z,11.73
2018-01-15T02:17:16.774Z,11.63
2018-01-15T02:19:44.922Z,10.60
2018-01-15T02:22:13.034Z,11.70
2018-01-15T02:24:41.184Z,11.87
2018-01-15T02:27:10.054Z,12.27
2018-01-15T02:29:38.196Z,13.10
2018-01-15T02:32:06.317Z,11.07
2018-01-15T02:34:34.459Z,11.63
2018-01-15T02:37:02.567Z,12.50
2018-01-15T02:39:31.483Z,12.00
2018-01-15T02:41:59.587Z,12.10
2018-01-15T02:44:27.730Z,10.63
2018-01-15T02:46:55.845Z,11.93
2018-01-15T02:49:23.978Z,10.93
2018-01-15T02:51:52.113Z,10.97
2018-01-15T02:54:21.031Z,11.67
2018-01-15T02:56:49.150Z,11.50
2018-01-15T02:59:17.318Z,10.40
2018-01-15T03:01:45.431Z,11.33
2018-01-15T03:04:13.602Z,12.20
2018-01-15T03:06:41.735Z,11.00
2018-01-15T03:09:09.875Z,12.00
2018-01-15T03:11:37.991Z,11.30
2018-01-15T03:14:06.296Z,11.67
2018-01-15T03:16:34.401Z,12.07
2018-01-15T03:19:02.546Z,11.23
2018-01-15T03:21:30.685Z,11.60
2018-01-15T03:23:58.844Z,11.47
2018-01-15T03:26:26.950Z,11.17
2018-01-15T03:28:55.084Z,11.17
2018-01-15T03:31:23.196Z,12.80
2018-01-15T03:33:51.344Z,11.80
2018-01-15T03:36:19.465Z,12.20
2018-01-15T03:38:48.359Z,12.60
2018-01-15T03:41:17.280Z,11.20
2018-01-15T03:43:45.402Z,11.27
2018-01-15T03:46:13.565Z,11.23
2018-01-15T03:48:41.694Z,11.40
2018-01-15T03:51:09.811Z,11.03
2018-01-15T03:53:37.943Z,11.93
2018-01-15T03:56:06.071Z,11.40
2018-01-15T03:58:34.221Z,13.20
2018-01-15T04:01:02.657Z,10.93
2018-01-15T04:03:31.023Z,12.47
2018-01-15T04:05:59.916Z,11.37
2018-01-15T04:08:28.818Z,11.00
2018-01-15T04:10:56.941Z,13.37
2018-01-15T04:13:25.100Z,11.20
2018-01-15T04:15:53.234Z,12.07
2018-01-15T04:18:21.386Z,11.80
2018-01-15T04:20:50.289Z,10.50
2018-01-15T04:23:19.187Z,12.17
2018-01-15T04:25:48.088Z,12.07
2018-01-15T04:28:16.203Z,11.30
2018-01-15T04:30:44.335Z,9.10
2018-01-15T04:33:12.467Z,10.60
2018-01-15T04:35:40.626Z,12.60
2018-01-15T04:38:08.738Z,11.50
2018-01-15T04:40:37.644Z,12.57
2018-01-15T04:43:05.771Z,10.93
2018-01-15T04:45:33.908Z,11.17
2018-01-15T04:48:02.182Z,10.50
2018-01-15T04:50:31.272Z,11.10
2018-01-15T04:52:59.377Z,12.20
2018-01-15T04:55:27.505Z,10.97
2018-01-15T04:57:55.627Z,12.53
2018-01-15T05:00:23.761Z,9.83
2018-01-15T05:02:51.870Z,10.03
2018-01-15T05:05:19.998Z,11.53
2018-01-15T05:07:48.134Z,13.20
2018-01-15T05:10:16.274Z,10.10
2018-01-15T05:12:44.380Z,13.70
2018-01-15T05:15:12.550Z,12.63
2018-01-15T05:17:40.667Z,10.97
2018-01-15T05:20:08.789Z,11.27
2018-01-15T05:22:36.898Z,10.93
2018-01-15T05:25:05.075Z,11.73
2018-01-15T05:27:33.196Z,11.80
2018-01-15T05:30:02.603Z,11.93
2018-01-15T05:32:30.696Z,12.10
2018-01-15T05:34:58.832Z,10.83
2018-01-15T05:37:26.948Z,12.47
2018-01-15T05:39:55.850Z,11.60
2018-01-15T05:42:24.723Z,11.43
2018-01-15T05:44:52.853Z,10.70
2018-01-15T05:47:21.005Z,11.37
2018-01-15T05:49:49.144Z,10.97
2018-01-15T05:52:17.254Z,11.07
2018-01-15T05:54:45.376Z,10.73
2018-01-15T05:57:13.493Z,12.60
2018-01-15T05:59:41.650Z,12.47
2018-01-15T06:02:10.532Z,12.27
2018-01-15T06:04:38.653Z,12.87
2018-01-15T06:07:06.783Z,11.60
2018-01-15T06:09:35.741Z,13.00
2018-01-15T06:12:04.052Z,11.93
2018-01-15T06:14:32.998Z,11.60
2018-01-15T06:17:01.297Z,12.63
2018-01-15T06:19:30.435Z,13.30
2018-01-15T06:21:59.303Z,12.90
2018-01-15T06:24:27.482Z,13.40
2018-01-15T06:26:56.358Z,11.83
2018-01-15T06:29:24.498Z,13.67
2018-01-15T06:31:52.614Z,12.97
2018-01-15T06:34:20.749Z,12.17
2018-01-15T06:36:48.869Z,12.97
2018-01-15T06:39:17.773Z,14.27
2018-01-15T06:41:45.895Z,13.73
2018-01-15T06:44:14.030Z,12.23
2018-01-15T06:46:42.155Z,12.17
2018-01-15T06:49:10.281Z,13.30
2018-01-15T06:51:38.403Z,12.33
2018-01-15T06:54:06.509Z,12.83
2018-01-15T06:56:34.674Z,12.30
2018-01-15T06:59:03.548Z,13.40
2018-01-15T07:01:31.673Z,10.93
2018-01-15T07:03:59.778Z,12.53
2018-01-15T07:06:27.895Z,12.77
2018-01-15T07:08:56.602Z,13.50
2018-01-15T07:11:24.848Z,14.40
2018-01-15T07:13:53.744Z,13.43
2018-01-15T07:16:22.647Z,14.20
2018-01-15T07:18:50.759Z,12.77
2018-01-15T07:21:18.981Z,13.60
2018-01-15T07:23:48.190Z,13.47
2018-01-15T07:26:16.357Z,12.97
2018-01-15T07:28:44.545Z,13.23
2018-01-15T07:31:12.688Z,12.07
2018-01-15T07:33:40.857Z,12.30
2018-01-15T07:36:09.770Z,12.60
2018-01-15T07:38:38.637Z,12.67
2018-01-15T07:41:06.770Z,12.70
2018-01-15T07:43:34.886Z,12.43
2018-01-15T07:46:03.034Z,13.20
2018-01-15T07:48:31.129Z,13.60
2018-01-15T07:51:00.630Z,14.00
2018-01-15T07:53:28.847Z,14.40
2018-01-15T07:55:56.967Z,13.50
2018-01-15T07:58:25.096Z,14.23
2018-01-15T08:00:53.226Z,14.80
2018-01-15T08:03:21.334Z,15.03
2018-01-15T08:05:49.487Z,14.67
2018-01-15T08:08:17.593Z,16.95
2018-01-15T08:10:45.722Z,15.07
2018-01-15T08:13:13.833Z,14.70
2018-01-15T08:15:42.031Z,13.63
2018-01-15T08:18:10.146Z,14.33
2018-01-15T08:20:38.280Z,12.67
2018-01-15T08:23:06.385Z,14.20
2018-01-15T08:25:35.300Z,12.40
2018-01-15T08:28:07.699Z,14.70
2018-01-15T08:30:36.480Z,16.70
2018-01-15T08:33:04.654Z,15.80
2018-01-15T08:35:32.796Z,14.33
2018-01-15T08:38:00.897Z,15.80
2018-01-15T08:40:29.092Z,14.50
2018-01-15T08:42:57.194Z,14.83
2018-01-15T08:45:25.422Z,11.60
2018-01-15T08:47:55.066Z,14.07
2018-01-15T08:50:27.789Z,12.37
2018-01-15T08:52:57.072Z,12.70
2018-01-15T08:55:25.314Z,14.20
2018-01-15T08:57:53.423Z,13.47
2018-01-15T09:00:21.542Z,11.80
2018-01-15T09:02:49.666Z,17.10
2018-01-15T09:05:17.789Z,13.73
2018-01-15T09:07:45.898Z,15.00
2018-01-15T09:10:14.067Z,13.70
2018-01-15T09:12:42.165Z,13.53
2018-01-15T09:15:10.287Z,14.97
2018-01-15T09:17:38.398Z,14.17
2018-01-15T09:20:06.534Z,15.33
2018-01-15T09:22:34.646Z,15.83
2018-01-15T09:25:02.798Z,14.63
2018-01-15T09:27:31.352Z,11.97
2018-01-15T09:30:00.656Z,13.20
2018-01-15T09:32:29.167Z,13.53
2018-01-15T09:34:57.339Z,14.57
2018-01-15T09:37:25.458Z,13.77
2018-01-15T09:39:54.338Z,15.03
2018-01-15T09:42:22.470Z,14.43
2018-01-15T09:44:50.576Z,14.63
2018-01-15T09:47:19.505Z,13.70
2018-01-15T09:49:47.606Z,15.27
2018-01-15T09:52:15.743Z,14.90
2018-01-15T09:54:44.623Z,13.93
2018-01-15T09:57:12.757Z,14.73
2018-01-15T09:59:40.863Z,14.70
2018-01-15T10:02:09.006Z,13.93
2018-01-15T10:04:37.119Z,14.37
2018-01-15T10:07:06.029Z,15.23
2018-01-15T10:09:34.141Z,14.90
2018-01-15T10:12:02.273Z,15.57
2018-01-15T10:14:30.380Z,14.27
2018-01-15T10:16:58.538Z,14.77
2018-01-15T10:19:26.690Z,15.60
2018-01-15T10:21:55.566Z,14.13
2018-01-15T10:24:25.586Z,15.93
2018-01-15T10:26:54.474Z,15.93
2018-01-15T10:29:23.346Z,14.50
2018-01-15T10:31:51.485Z,15.93
2018-01-15T10:34:19.586Z,15.50
2018-01-15T10:36:47.726Z,14.80
2018-01-15T10:39:15.834Z,15.97
2018-01-15T10:41:43.962Z,15.80
2018-01-15T10:44:12.084Z,15.77
2018-01-15T10:46:40.275Z,16.80
2018-01-15T10:49:09.156Z,16.00
2018-01-15T10:51:37.282Z,16.03
2018-01-15T10:54:06.154Z,15.30
2018-01-15T10:56:34.465Z,15.53
2018-01-15T10:59:02.585Z,14.93
2018-01-15T11:01:31.794Z,16.00
2018-01-15T11:04:00.127Z,15.80
2018-01-15T11:06:28.450Z,14.60
2018-01-15T11:08:56.847Z,16.83
2018-01-15T11:11:25.015Z,13.40
2018-01-15T11:13:53.608Z,16.87
2018-01-15T11:16:23.458Z,17.37
2018-01-15T11:18:51.613Z,16.10
2018-01-15T11:21:19.785Z,16.03
2018-01-15T11:23:47.929Z,15.40
2018-01-15T11:26:16.123Z,17.07
2018-01-15T11:28:44.235Z,16.10
2018-01-15T11:31:12.633Z,15.70
2018-01-15T11:33:41.624Z,16.20
2018-01-15T11:36:10.074Z,15.27
2018-01-15T11:38:38.175Z,12.97
2018-01-15T11:41:07.102Z,14.87
2018-01-15T11:43:35.231Z,15.27
2018-01-15T11:46:03.364Z,17.77
2018-01-15T11:48:32.390Z,15.73
2018-01-15T11:51:01.234Z,16.40
2018-01-15T11:53:30.003Z,16.40
2018-01-15T11:55:58.157Z,15.90
2018-01-15T11:58:27.324Z,14.90
2018-01-15T12:00:55.664Z,16.10
2018-01-15T12:03:23.897Z,15.03
2018-01-15T12:05:52.050Z,17.70
2018-01-15T12:08:20.413Z,16.80
2018-01-15T12:10:48.749Z,15.77
2018-01-15T12:13:17.031Z,15.70
2018-01-15T12:15:45.924Z,15.50
2018-01-15T12:18:14.870Z,17.33
2018-01-15T12:20:42.985Z,16.20
2018-01-15T12:23:11.886Z,15.07
2018-01-15T12:25:40.004Z,15.80
2018-01-15T12:28:08.183Z,14.10
2018-01-15T12:30:36.769Z,14.70
2018-01-15T12:33:04.977Z,16.97
2018-01-15T12:35:34.483Z,14.87
2018-01-15T12:38:03.876Z,16.27
2018-01-15T12:40:32.867Z,17.20
2018-01-15T12:43:01.034Z,16.37
2018-01-15T12:45:29.134Z,16.10
2018-01-15T12:47:57.262Z,17.50
2018-01-15T12:50:25.392Z,16.77
2018-01-15T12:52:53.538Z,18.20
2018-01-15T12:55:22.437Z,16.43
2018-01-15T12:57:50.584Z,16.90
2018-01-15T13:00:18.698Z,17.03
2018-01-15T13:02:46.840Z,15.70
2018-01-15T13:05:14.947Z,15.83
2018-01-15T13:07:55.873Z,16.80
2018-01-15T13:10:24.504Z,17.13
2018-01-15T13:12:52.698Z,16.50
2018-01-15T13:15:21.578Z,17.13
2018-01-15T13:17:50.142Z,15.13
2018-01-15T13:20:19.263Z,15.90
2018-01-15T13:22:47.879Z,17.47
2018-01-15T13:25:16.002Z,16.60
2018-01-15T13:27:44.606Z,15.50
2018-01-15T13:30:13.232Z,17.50
2018-01-15T13:32:41.380Z,16.70
2018-01-15T13:35:10.280Z,15.87
2018-01-15T13:37:39.732Z,16.80
2018-01-15T13:40:07.849Z,17.13
2018-01-15T13:42:36.768Z,16.23
2018-01-15T13:45:04.950Z,16.30
2018-01-15T13:47:33.089Z,16.60
2018-01-15T13:50:02.340Z,15.83
2018-01-15T13:52:30.495Z,16.30
2018-01-15T13:54:58.604Z,18.10
2018-01-15T13:57:26.737Z,18.37
2018-01-15T13:59:55.314Z,15.03
2018-01-15T14:02:23.457Z,17.57
2018-01-15T14:04:51.569Z,16.83
2018-01-15T14:07:19.701Z,15.87
2018-01-15T14:09:47.831Z,16.53
2018-01-15T14:12:15.990Z,16.80
2018-01-15T14:14:44.112Z,16.93
2018-01-15T14:17:12.266Z,16.00
2018-01-15T14:19:40.386Z,15.70
2018-01-15T14:22:09.292Z,16.03
2018-01-15T14:24:37.411Z,15.83
2018-01-15T14:27:05.527Z,17.10
2018-01-15T14:29:33.671Z,15.37
2018-01-15T14:32:01.809Z,15.80
2018-01-15T14:34:29.960Z,15.57
2018-01-15T14:36:58.086Z,15.97
2018-01-15T14:39:26.223Z,14.30
2018-01-15T14:41:54.344Z,14.80
2018-01-15T14:44:23.265Z,15.10
2018-01-15T14:46:51.380Z,16.40
2018-01-15T14:49:19.989Z,17.50
2018-01-15T14:51:48.091Z,14.80
2018-01-15T14:54:16.235Z,15.10
2018-01-15T14:56:45.136Z,15.80
2018-01-15T14:59:14.030Z,15.63
2018-01-15T15:01:43.533Z,13.60
2018-01-15T15:04:12.448Z,16.03
2018-01-15T15:06:40.567Z,14.10
2018-01-15T15:09:08.703Z,14.63
2018-01-15T15:11:36.967Z,17.20
2018-01-15T15:14:05.335Z,12.97
2018-01-15T15:16:33.546Z,14.63
2018-01-15T15:19:01.754Z,15.13
2018-01-15T15:21:30.179Z,15.23
2018-01-15T15:23:58.653Z,13.37
2018-01-15T15:26:26.866Z,14.40
2018-01-15T15:28:55.118Z,13.90
2018-01-15T15:31:23.245Z,14.53
2018-01-15T15:33:52.283Z,14.23
2018-01-15T15:36:20.553Z,13.47
2018-01-15T15:38:49.450Z,14.60
2018-01-15T15:41:17.564Z,14.47
2018-01-15T15:43:45.706Z,13.40
2018-01-15T15:46:13.979Z,13.93
2018-01-15T15:48:42.304Z,14.10
2018-01-15T15:51:10.569Z,13.63
2018-01-15T15:53:38.816Z,14.30
2018-01-15T15:56:08.265Z,14.37
2018-01-15T15:58:36.429Z,12.80
2018-01-15T16:01:04.615Z,13.77
2018-01-15T16:03:32.836Z,14.10
2018-01-15T16:06:01.013Z,13.50
2018-01-15T16:08:29.521Z,15.10
2018-01-15T16:10:58.000Z,12.70
2018-01-15T16:13:26.260Z,13.87
2018-01-15T16:15:54.761Z,13.97
2018-01-15T16:18:23.352Z,14.17
2018-01-15T16:20:51.556Z,11.90
2018-01-15T16:23:20.482Z,14.87
2018-01-15T16:25:48.917Z,12.80
2018-01-15T16:28:17.055Z,14.00
2018-01-15T16:30:45.198Z,14.10
2018-01-15T16:33:13.682Z,13.10
2018-01-15T16:35:41.863Z,14.90
2018-01-15T16:38:10.148Z,12.90
2018-01-15T16:40:38.322Z,14.90
2018-01-15T16:43:06.771Z,14.70
2018-01-15T16:45:35.770Z,13.67
2018-01-15T16:48:05.142Z,13.73
2018-01-15T16:50:33.285Z,14.30
2018-01-15T16:53:01.402Z,13.23
2018-01-15T16:55:29.563Z,14.33
2018-01-15T16:57:57.678Z,11.93
2018-01-15T17:00:25.852Z,14.50
2018-01-15T17:02:54.002Z,13.47
2018-01-15T17:05:23.975Z,14.97
2018-01-15T17:07:52.066Z,13.60
2018-01-15T17:10:20.209Z,13.37
2018-01-15T17:12:48.384Z,12.60
2018-01-15T17:15:16.580Z,13.67
2018-01-15T17:17:44.893Z,13.87
2018-01-15T17:20:14.228Z,13.60
2018-01-15T17:22:42.466Z,12.67
2018-01-15T17:25:11.822Z,12.93
2018-01-15T17:27:39.942Z,13.07
2018-01-15T17:30:08.901Z,11.07
2018-01-15T17:32:37.097Z,12.67
2018-01-15T17:35:05.433Z,12.90
2018-01-15T17:37:33.710Z,12.90
2018-01-15T17:40:02.118Z,12.33
2018-01-15T17:42:30.358Z,12.90
2018-01-15T17:44:59.350Z,13.53
2018-01-15T17:47:27.543Z,11.27
2018-01-15T17:49:55.747Z,13.57
2018-01-15T17:52:24.041Z,12.53
2018-01-15T17:54:52.966Z,12.83
2018-01-15T17:57:21.191Z,13.00
2018-01-15T17:59:49.402Z,12.97
2018-01-15T18:02:17.531Z,15.47
2018-01-15T18:04:45.662Z,11.53
2018-01-15T18:07:13.786Z,11.40
2018-01-15T18:09:42.077Z,12.90
2018-01-15T18:12:10.190Z,11.57
2018-01-15T18:14:38.348Z,13.10
2018-01-15T18:17:06.446Z,13.00
2018-01-15T18:19:34.623Z,13.10
2018-01-15T18:22:03.818Z,14.40
2018-01-15T18:24:31.991Z,13.60
2018-01-15T18:27:00.933Z,13.60
2018-01-15T18:29:29.079Z,12.13
2018-01-15T18:31:57.974Z,13.53
2018-01-15T18:34:26.124Z,13.67
2018-01-15T18:36:55.024Z,15.50
2018-01-15T18:39:24.035Z,14.47
2018-01-15T18:41:52.909Z,15.43
2018-01-15T18:44:21.062Z,14.80
2018-01-15T18:46:49.278Z,14.73
2018-01-15T18:49:18.265Z,13.73
2018-01-15T18:51:46.372Z,15.00
2018-01-15T18:54:14.542Z,12.97
2018-01-15T18:56:42.731Z,13.80
2018-01-15T18:59:10.942Z,13.37
2018-01-15T19:01:39.077Z,15.40
2018-01-15T19:04:07.329Z,14.87
2018-01-15T19:06:36.211Z,13.43
2018-01-15T19:09:05.800Z,14.17
2018-01-15T19:11:34.195Z,16.23
2018-01-15T19:14:03.093Z,17.17
2018-01-15T19:16:32.310Z,14.77
2018-01-15T19:19:00.705Z,17.10
2018-01-15T19:21:29.623Z,15.30
2018-01-15T19:23:57.793Z,16.13
2018-01-15T19:26:26.685Z,14.57
2018-01-15T19:28:55.581Z,16.30
2018-01-15T19:31:23.912Z,17.23
2018-01-15T19:33:52.448Z,17.03
2018-01-15T19:36:22.401Z,14.13
2018-01-15T19:38:50.519Z,16.40
2018-01-15T19:41:33.539Z,16.70
2018-01-15T19:44:07.581Z,18.17
2018-01-15T19:46:42.176Z,17.10
2018-01-15T19:49:16.439Z,15.13
2018-01-15T19:51:51.131Z,15.70
2018-01-15T19:54:24.817Z,15.27
2018-01-15T19:56:58.579Z,16.00
2018-01-15T19:59:33.108Z,15.07
2018-01-15T20:02:06.846Z,15.80
2018-01-15T20:04:41.413Z,17.00
2018-01-15T20:07:15.183Z,16.87
2018-01-15T20:09:48.944Z,17.23
2018-01-15T20:12:17.830Z,17.30
2018-01-15T20:14:46.000Z,16.07
2018-01-15T20:17:14.876Z,15.00
2018-01-15T20:19:43.014Z,16.27
2018-01-15T20:22:11.136Z,15.10
2018-01-15T20:24:40.032Z,17.43
2018-01-15T20:27:08.957Z,14.07
2018-01-15T20:29:37.067Z,14.97
2018-01-15T20:32:05.195Z,14.37
2018-01-15T20:34:33.814Z,14.00
2018-01-15T20:37:01.960Z,13.97
2018-01-15T20:39:30.141Z,13.63
2018-01-15T20:41:58.288Z,13.90
2018-01-15T20:44:26.423Z,13.37
2018-01-15T20:46:54.579Z,13.63
2018-01-15T20:49:22.713Z,13.43
2018-01-15T20:51:50.893Z,12.37
2018-01-15T20:54:19.039Z,12.53
2018-01-15T20:56:47.295Z,10.70
2018-01-15T20:59:15.445Z,11.10
2018-01-15T21:01:43.849Z,11.77
2018-01-15T21:04:12.155Z,10.97
2018-01-15T21:06:40.296Z,9.37
2018-01-15T21:09:08.495Z,9.97
2018-01-15T21:11:36.666Z,9.20
2018-01-15T21:14:04.769Z,9.10
2018-01-15T21:16:32.911Z,10.33
2018-01-15T21:19:02.842Z,8.90
2018-01-15T21:21:31.841Z,9.33
2018-01-15T21:24:00.445Z,8.20
2018-01-15T21:26:28.591Z,7.60
2018-01-15T21:28:56.718Z,7.40
2018-01-15T21:31:25.638Z,8.23
2018-01-15T21:33:53.754Z,6.40
2018-01-15T21:36:21.883Z,6.53
2018-01-15T21:38:49.990Z,6.33
2018-01-15T21:41:18.136Z,7.20
2018-01-15T21:43:46.242Z,6.60
2018-01-15T21:46:14.371Z,6.17
2018-01-15T21:48:43.344Z,5.30
2018-01-15T21:51:12.240Z,5.27
2018-01-15T21:53:41.113Z,4.97
2018-01-15T21:56:09.251Z,4.73
2018-01-15T21:58:37.374Z,5.73
2018-01-15T22:01:05.502Z,4.53
2018-01-15T22:03:33.614Z,5.20
2018-01-15T22:06:02.877Z,4.60
2018-01-15T22:08:30.981Z,4.40
2018-01-15T22:10:59.124Z,6.17
2018-01-15T22:13:27.231Z,4.67
2018-01-15T22:15:55.379Z,4.80
2018-01-15T22:18:23.512Z,4.60
2018-01-15T22:20:51.648Z,4.77
2018-01-15T22:23:19.757Z,5.83
2018-01-15T22:25:47.888Z,4.30
2018-01-15T22:28:15.999Z,4.50
2018-01-15T22:30:44.136Z,3.90
2018-01-15T22:33:12.289Z,4.83
2018-01-15T22:35:40.375Z,4.67
2018-01-15T22:38:08.510Z,3.93
2018-01-15T22:40:36.611Z,4.47
2018-01-15T22:43:04.751Z,4.37
2018-01-15T22:45:32.866Z,4.67
2018-01-15T22:48:00.994Z,3.50
2018-01-15T22:50:29.120Z,4.67
2018-01-15T22:52:57.257Z,4.17
2018-01-15T22:55:25.357Z,3.47
2018-01-15T22:57:53.482Z,3.87
2018-01-15T23:00:21.604Z,3.97
2018-01-15T23:02:49.741Z,4.10
2018-01-15T23:05:17.848Z,4.00
2018-01-15T23:07:46.117Z,4.27
2018-01-15T23:10:14.242Z,3.83
2018-01-15T23:12:42.391Z,3.67
2018-01-15T23:15:14.806Z,3.67
2018-01-15T23:17:42.958Z,3.47
2018-01-15T23:20:11.820Z,3.57
2018-01-15T23:22:39.966Z,3.57
2018-01-15T23:25:08.077Z,3.50
2018-01-15T23:27:36.243Z,3.00
2018-01-15T23:30:04.346Z,3.00
2018-01-15T23:32:33.250Z,3.20
2018-01-15T23:35:01.557Z,4.20
2018-01-15T23:37:29.720Z,4.30
2018-01-15T23:39:57.821Z,3.50
2018-01-15T23:42:25.948Z,3.97
2018-01-15T23:44:54.050Z,3.77
2018-01-15T23:47:22.182Z,4.47
2018-01-15T23:49:51.071Z,4.37
2018-01-15T23:52:19.221Z,4.50
2018-01-15T23:54:47.331Z,3.40
2018-01-15T23:57:15.477Z,4.33
2018-01-15T23:59:43.582Z,3.90
